createdAt,value
2023-02-20T00:02:40.447Z,78.18
2023-02-20T00:07:43.371Z,77.90
2023-02-20T00:12:47.628Z,76.76
2023-02-20T00:17:50.874Z,77.33
2023-02-20T00:22:54.331Z,76.64
2023-02-20T00:27:58.485Z,78.10
2023-02-20T00:33:01.739Z,75.62
2023-02-20T00:38:04.431Z,77.00
2023-02-20T00:43:08.574Z,76.16
2023-02-20T00:48:11.332Z,76.73
2023-02-20T00:53:14.066Z,76.46
2023-02-20T00:58:18.219Z,76.84
2023-02-20T01:03:21.102Z,77.50
2023-02-20T01:08:24.042Z,78.18
2023-02-20T01:13:28.713Z,78.02
2023-02-20T01:18:31.650Z,78.52
2023-02-20T01:23:34.558Z,77.34
2023-02-20T01:28:38.791Z,78.30
2023-02-20T01:33:43.130Z,78.17
2023-02-20T01:38:48.447Z,78.58
2023-02-20T01:43:52.610Z,78.62
2023-02-20T01:49:00.364Z,77.49
2023-02-20T01:54:04.131Z,77.39
2023-02-20T01:59:10.349Z,76.11
2023-02-20T02:04:14.231Z,76.99
2023-02-20T02:09:23.460Z,77.22
2023-02-20T02:14:28.082Z,78.63
2023-02-20T02:19:50.783Z,78.78
2023-02-20T02:25:14.420Z,77.15
2023-02-20T02:30:56.034Z,77.98
2023-02-20T02:36:14.482Z,78.42
2023-02-20T02:41:23.389Z,78.06
2023-02-20T02:46:32.291Z,80.16
2023-02-20T02:51:45.498Z,79.30
2023-02-20T02:56:49.648Z,78.80
2023-02-20T03:01:56.754Z,78.72
2023-02-20T03:07:06.810Z,79.15
2023-02-20T03:12:13.403Z,77.66
2023-02-20T03:17:27.676Z,76.59
2023-02-20T03:22:37.861Z,77.38
2023-02-20T03:27:51.515Z,76.47
2023-02-20T03:33:20.526Z,76.22
2023-02-20T03:38:43.922Z,76.83
2023-02-20T03:43:49.638Z,78.11
2023-02-20T03:48:56.179Z,76.04
2023-02-20T03:54:02.565Z,76.90
2023-02-20T03:59:12.768Z,77.29
2023-02-20T04:04:20.356Z,77.52
2023-02-20T04:09:29.870Z,76.90
2023-02-20T04:14:34.050Z,77.83
2023-02-20T04:19:38.911Z,77.42
2023-02-20T04:24:48.145Z,77.64
2023-02-20T04:29:51.331Z,76.46
2023-02-20T04:34:54.827Z,76.87
2023-02-20T04:39:59.259Z,77.21
2023-02-20T04:45:03.924Z,75.98
2023-02-20T04:50:07.965Z,77.35
2023-02-20T04:55:12.446Z,76.89
2023-02-20T05:00:16.944Z,75.36
2023-02-20T05:05:21.766Z,77.32
2023-02-20T05:10:27.323Z,76.05
2023-02-20T05:15:31.616Z,76.93
2023-02-20T05:21:06.621Z,76.53
2023-02-20T05:26:12.026Z,77.44
2023-02-20T05:31:17.658Z,76.71
2023-02-20T05:36:20.889Z,76.58
2023-02-20T05:41:25.058Z,76.58
2023-02-20T05:46:28.478Z,77.62
2023-02-20T05:51:34.125Z,77.19
2023-02-20T05:56:42.373Z,77.74
2023-02-20T06:01:45.164Z,77.68
2023-02-20T06:06:48.006Z,75.67
2023-02-20T06:11:53.807Z,77.50
2023-02-20T06:16:57.953Z,79.03
2023-02-20T06:22:01.810Z,78.36
2023-02-20T06:27:08.529Z,78.41
2023-02-20T06:32:11.340Z,79.36
2023-02-20T06:37:14.547Z,78.47
2023-02-20T06:42:18.710Z,79.32
2023-02-20T06:47:21.529Z,79.29
2023-02-20T06:52:24.238Z,78.56
2023-02-20T06:57:28.380Z,78.71
2023-02-20T07:02:31.125Z,80.55
2023-02-20T07:07:34.091Z,79.71
2023-02-20T07:12:39.633Z,78.72
2023-02-20T07:17:42.486Z,79.71
2023-02-20T07:22:50.937Z,79.55
2023-02-20T07:27:55.080Z,79.68
2023-02-20T07:32:57.851Z,80.61
2023-02-20T07:38:00.621Z,80.17
2023-02-20T07:43:04.789Z,80.28
2023-02-20T07:48:07.580Z,79.85
2023-02-20T07:53:11.499Z,79.75
2023-02-20T07:58:15.611Z,80.24
2023-02-20T08:03:18.581Z,79.61
2023-02-20T08:08:24.388Z,79.42
2023-02-20T08:13:28.659Z,79.00
2023-02-20T08:18:31.426Z,77.96
2023-02-20T08:23:34.214Z,78.59
2023-02-20T08:28:38.573Z,78.24
2023-02-20T08:33:41.565Z,78.75
2023-02-20T08:38:44.376Z,80.21
2023-02-20T08:43:48.525Z,79.14
2023-02-20T08:48:51.319Z,79.37
2023-02-20T08:53:54.129Z,80.03
2023-02-20T08:58:58.265Z,80.84
2023-02-20T09:04:02.175Z,81.53
2023-02-20T09:09:05.602Z,79.24
2023-02-20T09:14:10.758Z,82.08
2023-02-20T09:19:15.162Z,81.10
2023-02-20T09:24:18.027Z,81.55
2023-02-20T09:29:22.168Z,80.00
2023-02-20T09:34:26.086Z,80.93
2023-02-20T09:39:28.919Z,81.50
2023-02-20T09:44:42.212Z,80.19
2023-02-20T09:49:45.087Z,80.59
2023-02-20T09:54:54.391Z,80.01
2023-02-20T10:00:06.700Z,81.27
2023-02-20T10:05:20.281Z,80.73
2023-02-20T10:10:25.809Z,81.47
2023-02-20T10:15:37.842Z,80.24
2023-02-20T10:20:51.747Z,80.92
2023-02-20T10:25:57.767Z,82.25
2023-02-20T10:31:11.293Z,81.05
2023-02-20T10:36:19.187Z,81.88
2023-02-20T10:41:31.750Z,81.29
2023-02-20T10:46:48.992Z,81.09
2023-02-20T10:51:58.681Z,81.92
2023-02-20T10:57:07.371Z,82.93
2023-02-20T11:02:19.783Z,83.38
2023-02-20T11:07:23.921Z,83.17
2023-02-20T11:12:32.594Z,81.45
2023-02-20T11:17:40.045Z,83.93
2023-02-20T11:22:45.301Z,83.90
2023-02-20T11:27:51.534Z,83.56
2023-02-20T11:33:04.172Z,83.63
2023-02-20T11:38:25.488Z,83.52
2023-02-20T11:43:31.669Z,84.19
2023-02-20T11:48:36.151Z,83.12
2023-02-20T11:53:38.939Z,81.93
2023-02-20T11:58:42.655Z,83.06
2023-02-20T12:03:56.194Z,82.35
2023-02-20T12:09:02.047Z,82.43
2023-02-20T12:14:12.319Z,82.91
2023-02-20T12:19:20.984Z,82.83
2023-02-20T12:24:54.332Z,83.61
2023-02-20T12:30:07.546Z,82.31
2023-02-20T12:35:34.308Z,81.99
2023-02-20T12:40:51.963Z,83.13
2023-02-20T12:46:04.867Z,83.08
2023-02-20T12:51:28.560Z,82.04
2023-02-20T12:56:43.005Z,82.44
2023-02-20T13:01:45.952Z,82.48
2023-02-20T13:06:57.885Z,84.47
2023-02-20T13:12:05.664Z,84.69
2023-02-20T13:17:22.443Z,85.69
2023-02-20T13:22:26.651Z,86.04
2023-02-20T13:27:32.127Z,85.88
2023-02-20T13:32:34.966Z,86.17
2023-02-20T13:38:10.270Z,86.08
2023-02-20T13:43:26.868Z,86.89
2023-02-20T13:48:44.258Z,86.58
2023-02-20T13:53:51.298Z,86.01
2023-02-20T13:58:58.334Z,86.08
2023-02-20T14:04:02.197Z,84.44
2023-02-20T14:09:11.697Z,86.41
2023-02-20T14:14:27.668Z,87.53
2023-02-20T14:19:30.799Z,87.47
2023-02-20T14:24:35.071Z,88.02
2023-02-20T14:29:38.753Z,86.76
2023-02-20T14:34:51.290Z,85.50
2023-02-20T14:40:03.888Z,89.25
2023-02-20T14:45:10.202Z,89.09
2023-02-20T14:50:18.431Z,91.37
2023-02-20T14:55:26.791Z,91.97
2023-02-20T15:00:35.784Z,92.77
2023-02-20T15:05:44.568Z,92.73
2023-02-20T15:10:50.282Z,93.42
2023-02-20T15:16:04.870Z,92.76
2023-02-20T15:21:10.546Z,93.63
2023-02-20T15:26:32.799Z,91.77
2023-02-20T15:31:35.689Z,93.92
2023-02-20T15:36:38.472Z,95.55
2023-02-20T15:41:42.609Z,94.52
2023-02-20T15:46:45.378Z,93.70
2023-02-20T15:51:48.623Z,95.77
2023-02-20T15:56:53.446Z,96.70
2023-02-20T16:01:56.347Z,95.87
2023-02-20T16:06:59.353Z,94.75
2023-02-20T16:12:03.634Z,95.65
2023-02-20T16:17:06.419Z,95.15
2023-02-20T16:22:10.670Z,96.31
2023-02-20T16:27:24.913Z,96.64
2023-02-20T16:32:29.320Z,97.95
2023-02-20T16:37:32.487Z,96.97
2023-02-20T16:42:38.756Z,96.42
2023-02-20T16:47:42.353Z,96.71
2023-02-20T16:52:45.142Z,94.83
2023-02-20T16:57:49.777Z,96.82
2023-02-20T17:02:53.629Z,97.34
2023-02-20T17:07:56.899Z,97.30
2023-02-20T17:13:01.050Z,97.99
2023-02-20T17:18:03.884Z,98.25
2023-02-20T17:23:06.926Z,96.83
2023-02-20T17:28:12.669Z,98.21
2023-02-20T17:33:15.989Z,98.23
2023-02-20T17:38:18.750Z,96.90
2023-02-20T17:43:22.878Z,96.59
2023-02-20T17:48:25.656Z,96.88
2023-02-20T17:53:28.478Z,95.75
2023-02-20T17:58:32.622Z,98.75
2023-02-20T18:03:35.502Z,95.75
2023-02-20T18:08:38.248Z,94.63
2023-02-20T18:13:42.378Z,97.38
2023-02-20T18:18:45.321Z,95.96
2023-02-20T18:23:48.087Z,98.09
2023-02-20T18:28:52.244Z,98.17
2023-02-20T18:33:55.574Z,96.14
2023-02-20T18:38:58.898Z,98.64
2023-02-20T18:44:03.111Z,96.27
2023-02-20T18:49:05.950Z,98.36
2023-02-20T18:54:11.122Z,97.95
2023-02-20T18:59:16.069Z,97.24
2023-02-20T19:04:18.922Z,97.69
2023-02-20T19:09:23.561Z,97.65
2023-02-20T19:14:29.393Z,98.00
2023-02-20T19:19:34.338Z,97.97
2023-02-20T19:24:39.339Z,96.96
2023-02-20T19:29:45.598Z,99.26
2023-02-20T19:34:48.618Z,97.88
2023-02-20T19:39:51.512Z,97.90
2023-02-20T19:44:55.688Z,95.82
2023-02-20T19:49:58.460Z,98.05
2023-02-20T19:55:01.380Z,96.42
2023-02-20T20:00:06.163Z,95.53
2023-02-20T20:05:16.854Z,95.58
2023-02-20T20:10:21.881Z,96.37
2023-02-20T20:15:28.553Z,95.42
2023-02-20T20:20:33.152Z,95.97
2023-02-20T20:25:36.753Z,96.35
2023-02-20T20:30:41.215Z,94.82
2023-02-20T20:35:44.104Z,95.07
2023-02-20T20:40:46.903Z,94.46
2023-02-20T20:45:51.157Z,96.10
2023-02-20T20:50:54.345Z,93.56
2023-02-20T20:55:57.094Z,93.96
2023-02-20T21:01:01.230Z,94.44
2023-02-20T21:06:04.143Z,94.43
2023-02-20T21:11:07.317Z,93.96
2023-02-20T21:16:11.605Z,93.57
2023-02-20T21:21:15.069Z,94.06
2023-02-20T21:26:18.012Z,94.38
2023-02-20T21:31:22.315Z,95.53
2023-02-20T21:36:26.003Z,96.86
2023-02-20T21:41:46.565Z,94.32
2023-02-20T21:46:51.532Z,94.68
2023-02-20T21:51:54.840Z,92.44
2023-02-20T21:56:58.490Z,93.81
2023-02-20T22:02:01.789Z,92.88
2023-02-20T22:07:22.029Z,93.85
2023-02-20T22:12:42.272Z,93.25
2023-02-20T22:18:03.995Z,94.47
2023-02-20T22:23:25.502Z,92.93
2023-02-20T22:28:45.938Z,94.65
2023-02-20T22:34:07.810Z,92.66
2023-02-20T22:39:31.213Z,94.39
2023-02-20T22:44:51.591Z,92.33
2023-02-20T22:50:13.255Z,92.61
2023-02-20T22:55:33.775Z,92.28
2023-02-20T23:00:54.308Z,92.40
2023-02-20T23:06:18.444Z,93.16
2023-02-20T23:11:39.212Z,94.41
2023-02-20T23:16:59.570Z,93.15
2023-02-20T23:22:21.197Z,95.99
2023-02-20T23:27:41.766Z,96.03
2023-02-20T23:33:02.132Z,95.35
2023-02-20T23:38:23.900Z,95.75
2023-02-20T23:43:46.901Z,94.31
2023-02-20T23:49:07.108Z,93.46
2023-02-20T23:54:28.808Z,94.77
2023-02-20T23:59:49.142Z,95.37
